Time;durP1;ratioP1;P1;durP2;ratioP2;P2;SDS_P1;SDS_P2;PMS_P1;PMS_P2;Temp;Humidity;BMP_temperature;BMP_pressure;BME280_temperature;BME280_humidity;BME280_pressure;Samples;Min_cycle;Max_cycle;Signal;HPM_P1;HPM_P2
2022/08/02 00:00:56;;;;;;;3.02;2.02;;;;;;;18.05;81.74;100676.88;1742542;81;21018;-86
2022/08/02 00:03:23;;;;;;;3.80;2.12;;;;;;;18.05;81.92;100677.36;1742605;80;21168;-86
2022/08/02 00:05:51;;;;;;;2.30;2.10;;;;;;;18.05;81.91;100673.38;1763381;79;20995;-86
2022/08/02 00:08:18;;;;;;;3.95;2.42;;;;;;;18.05;82.09;100676.03;1753613;80;21029;-86
2022/08/02 00:10:45;;;;;;;3.40;2.25;;;;;;;18.05;82.28;100672.06;1761046;79;21084;-86
2022/08/02 00:13:12;;;;;;;2.20;2.00;;;;;;;18.06;82.30;100667.12;1753235;81;21064;-86
2022/08/02 00:15:39;;;;;;;3.35;2.17;;;;;;;18.07;82.37;100672.82;1748603;79;21191;-86
2022/08/02 00:18:06;;;;;;;2.90;2.25;;;;;;;18.05;82.44;100675.55;1770266;81;21144;-86
2022/08/02 00:20:33;;;;;;;5.05;2.35;;;;;;;18.06;82.49;100671.94;1770520;80;21015;-86
2022/08/02 00:23:00;;;;;;;4.40;2.10;;;;;;;18.06;82.43;100670.61;1759494;81;21016;-87
2022/08/02 00:25:27;;;;;;;3.30;2.35;;;;;;;18.04;82.50;100674.31;1770108;80;21012;-86
2022/08/02 00:27:54;;;;;;;2.65;2.15;;;;;;;18.03;82.52;100684.08;1764257;79;21108;-86
2022/08/02 00:30:21;;;;;;;3.75;2.37;;;;;;;18.02;82.57;100686.84;1739201;79;21028;-86
2022/08/02 00:32:48;;;;;;;3.23;2.33;;;;;;;18.00;82.61;100687.41;1761218;79;21054;-86
2022/08/02 00:35:16;;;;;;;4.75;2.30;;;;;;;17.98;82.69;100686.64;1752385;81;21524;-85
2022/08/02 00:37:44;;;;;;;2.10;1.92;;;;;;;17.96;82.79;100686.77;1770425;79;22054;-86
2022/08/02 00:40:11;;;;;;;2.55;2.17;;;;;;;17.94;82.79;100691.78;1770047;80;22333;-86
2022/08/02 00:42:39;;;;;;;2.37;2.17;;;;;;;17.92;82.81;100698.49;1759887;79;21481;-86
2022/08/02 00:45:08;;;;;;;4.25;2.33;;;;;;;17.91;83.02;100691.98;1773444;80;20959;-86
2022/08/02 00:47:35;;;;;;;3.75;2.77;;;;;;;17.89;82.95;100700.50;1750092;81;21019;-85
2022/08/02 00:50:03;;;;;;;2.87;2.52;;;;;;;17.87;83.06;100706.36;1756907;81;21035;-86
2022/08/02 00:52:30;;;;;;;3.83;2.40;;;;;;;17.84;83.11;100699.45;1769980;81;21098;-86
2022/08/02 00:54:57;;;;;;;4.35;2.85;;;;;;;17.83;83.39;100705.23;1750582;81;21434;-86
2022/08/02 00:57:23;;;;;;;2.67;2.37;;;;;;;17.84;83.54;100704.75;1768276;81;21058;-85
2022/08/02 00:59:51;;;;;;;3.55;2.62;;;;;;;17.82;83.41;100710.17;1761918;79;21517;-85
2022/08/02 01:02:18;;;;;;;4.22;2.67;;;;;;;17.80;83.45;100712.05;1765733;81;21024;-86
2022/08/02 01:04:45;;;;;;;5.10;3.08;;;;;;;17.78;83.39;100711.73;1762996;79;21164;-86
2022/08/02 01:07:13;;;;;;;3.22;2.33;;;;;;;17.75;83.45;100710.60;1773527;79;21075;-86
2022/08/02 01:09:45;;;;;;;4.90;2.87;;;;;;;17.71;83.54;100716.58;1773956;80;21102;-85
2022/08/02 01:12:12;;;;;;;2.50;2.30;;;;;;;17.71;83.74;100717.02;1750851;80;21027;-85
2022/08/02 01:14:49;;;;;;;4.42;3.25;;;;;;;17.70;83.68;100720.63;1773912;80;21436;-85
2022/08/02 01:17:39;;;;;;;3.40;2.72;;;;;;;17.67;83.72;100720.34;1773509;80;21117;-80
2022/08/02 01:20:21;;;;;;;4.87;2.92;;;;;;;17.66;83.95;100726.61;1773269;80;21090;-86
2022/08/02 01:23:22;;;;;;;4.35;2.85;;;;;;;17.67;84.03;100714.20;1774002;79;21015;-86
2022/08/02 01:26:35;;;;;;;3.00;2.70;;;;;;;17.63;83.97;100721.98;1773561;79;21531;-86
2022/08/02 01:29:21;;;;;;;3.83;3.30;;;;;;;17.60;84.25;100719.89;1774067;80;21075;-86
2022/08/02 01:32:11;;;;;;;5.58;3.50;;;;;;;17.55;84.17;100712.69;1773713;80;21114;-85
2022/08/02 01:34:56;;;;;;;5.60;2.90;;;;;;;17.53;84.26;100723.00;1773871;79;21039;-86
2022/08/02 01:37:48;;;;;;;4.33;3.05;;;;;;;17.50;84.40;100713.44;1773403;80;21050;-86
2022/08/02 01:40:26;;;;;;;5.30;3.30;;;;;;;17.52;84.58;100719.98;1773824;80;21604;-86
2022/08/02 01:42:57;;;;;;;3.33;3.02;;;;;;;17.50;84.57;100717.89;1773648;79;21489;-86
2022/08/02 01:45:29;;;;;;;5.60;3.92;;;;;;;17.48;84.59;100718.45;1774089;79;21834;-87
2022/08/02 01:47:58;;;;;;;4.67;3.27;;;;;;;17.47;84.67;100711.45;1773517;80;20912;-86
2022/08/02 01:50:32;;;;;;;4.05;3.08;;;;;;;17.48;84.71;100715.80;1784161;79;21258;-86
2022/08/02 01:53:04;;;;;;;6.12;3.40;;;;;;;17.48;84.95;100717.12;1773574;80;21039;-87
2022/08/02 01:55:42;;;;;;;3.83;3.25;;;;;;;17.46;84.75;100719.88;1773812;80;21027;-86
2022/08/02 01:58:13;;;;;;;3.83;3.42;;;;;;;17.44;84.79;100727.06;1773578;80;21115;-86
2022/08/02 02:00:41;;;;;;;3.95;3.40;;;;;;;17.43;84.72;100716.55;1773964;79;20992;-86
2022/08/02 02:03:16;;;;;;;4.17;3.22;;;;;;;17.37;84.54;100721.73;1773735;79;21039;-86
2022/08/02 02:05:45;;;;;;;6.20;3.52;;;;;;;17.34;84.83;100723.25;1774035;79;21031;-86
2022/08/02 02:08:16;;;;;;;4.20;3.30;;;;;;;17.34;84.97;100724.09;1773752;80;20992;-86
2022/08/02 02:10:44;;;;;;;4.58;3.40;;;;;;;17.31;84.84;100722.11;1764224;80;21100;-86
2022/08/02 02:13:15;;;;;;;3.85;3.45;;;;;;;17.28;84.89;100724.95;1773670;80;21094;-86
2022/08/02 02:15:49;;;;;;;5.03;3.95;;;;;;;17.24;84.88;100720.80;1743567;80;21005;-86
2022/08/02 02:18:24;;;;;;;4.67;4.00;;;;;;;17.20;84.87;100724.55;1754276;80;21015;-86
2022/08/02 02:20:53;;;;;;;5.60;3.83;;;;;;;17.13;85.08;100726.25;1743092;80;21123;-86
2022/08/02 02:23:20;;;;;;;5.83;3.58;;;;;;;17.14;85.33;100724.45;1764986;80;21079;-86
2022/08/02 02:25:49;;;;;;;7.67;3.77;;;;;;;17.10;85.21;100723.78;1761556;80;21020;-86
2022/08/02 02:28:31;;;;;;;5.95;3.87;;;;;;;17.07;85.26;100721.33;1773992;80;21114;-86
2022/08/02 02:31:03;;;;;;;4.47;3.98;;;;;;;17.05;85.46;100724.52;1773765;80;21083;-86
2022/08/02 02:33:32;;;;;;;6.20;3.98;;;;;;;17.02;85.69;100727.36;1773938;79;21015;-86
2022/08/02 02:36:01;;;;;;;4.72;3.92;;;;;;;17.01;85.80;100732.73;1773856;79;21098;-86
2022/08/02 02:38:32;;;;;;;4.93;4.23;;;;;;;17.00;85.98;100726.58;1774230;80;20963;-86
2022/08/02 02:41:03;;;;;;;4.45;4.05;;;;;;;16.99;86.00;100728.86;1773782;80;22244;-86
2022/08/02 02:43:33;;;;;;;5.22;4.53;;;;;;;16.98;85.98;100733.75;1773828;80;21051;-87
2022/08/02 02:46:03;;;;;;;6.90;4.50;;;;;;;16.95;85.99;100722.88;1773651;80;21098;-87
2022/08/02 02:48:33;;;;;;;5.33;3.67;;;;;;;16.91;85.87;100725.80;1773915;79;21161;-87
2022/08/02 02:51:05;;;;;;;6.45;4.45;;;;;;;16.86;85.97;100726.54;1773785;80;21675;-86
2022/08/02 02:53:34;;;;;;;6.20;4.60;;;;;;;16.80;85.98;100731.72;1773823;79;21011;-85
2022/08/02 02:56:03;;;;;;;5.83;4.78;;;;;;;16.77;86.19;100738.52;1773903;80;21054;-86
2022/08/02 02:58:31;;;;;;;5.78;5.10;;;;;;;16.73;86.50;100738.27;1773976;80;21031;-86
2022/08/02 03:03:44;;;;;;;6.97;4.35;;;;;;;16.71;86.60;100740.13;1773884;79;20991;-87
2022/08/02 03:06:12;;;;;;;6.37;5.05;;;;;;;16.68;86.89;100737.67;1771837;79;21066;-87
2022/08/02 03:08:39;;;;;;;5.55;4.83;;;;;;;16.68;86.89;100737.67;1775745;80;21000;-86
2022/08/02 03:11:09;;;;;;;5.50;4.78;;;;;;;16.69;87.03;100745.53;1734511;80;21131;-86
2022/08/02 03:13:38;;;;;;;6.15;5.08;;;;;;;16.69;87.06;100742.89;1759495;81;21524;-85
2022/08/02 03:16:06;;;;;;;6.40;4.80;;;;;;;16.68;86.98;100746.93;1744623;79;20920;-86
2022/08/02 03:18:36;;;;;;;8.58;4.67;;;;;;;16.67;87.09;100749.20;1763932;81;20988;-86
2022/08/02 03:21:08;;;;;;;6.25;4.65;;;;;;;16.64;87.13;100751.55;1748474;79;21015;-86
2022/08/02 03:23:35;;;;;;;5.97;4.75;;;;;;;16.65;87.33;100751.92;1770428;80;21106;-86
2022/08/02 03:26:02;;;;;;;6.58;5.40;;;;;;;16.64;87.14;100753.35;1748370;79;21506;-85
2022/08/02 03:28:30;;;;;;;6.40;5.40;;;;;;;16.60;87.09;100755.77;1763954;81;21099;-86
2022/08/02 03:30:57;;;;;;;7.10;5.00;;;;;;;16.56;87.06;100748.96;1765667;79;20987;-86
2022/08/02 03:33:25;;;;;;;7.42;4.87;;;;;;;16.52;87.02;100758.87;1760527;81;21063;-86
2022/08/02 03:35:57;;;;;;;6.78;5.10;;;;;;;16.45;86.93;100751.73;1770146;81;21027;-86
2022/08/02 03:38:25;;;;;;;6.92;5.37;;;;;;;16.40;87.18;100756.90;1761338;80;21830;-86
2022/08/02 03:40:54;;;;;;;5.75;5.10;;;;;;;16.39;87.37;100759.17;1739197;81;20933;-86
2022/08/02 03:43:23;;;;;;;8.57;5.47;;;;;;;16.37;87.33;100761.04;1743604;81;21024;-87
2022/08/02 03:45:52;;;;;;;7.05;5.28;;;;;;;16.30;87.34;100768.47;1754930;81;21666;-84
2022/08/02 03:48:19;;;;;;;7.33;4.75;;;;;;;16.28;87.69;100765.89;1768703;81;22386;-87
2022/08/02 03:50:48;;;;;;;5.47;4.78;;;;;;;16.25;87.55;100776.65;1769996;81;21048;-87
2022/08/02 03:53:17;;;;;;;6.00;5.10;;;;;;;16.24;87.61;100776.75;1756185;79;21008;-87
2022/08/02 03:55:45;;;;;;;6.05;5.12;;;;;;;16.21;87.69;100782.18;1746287;81;21047;-86
2022/08/02 03:58:20;;;;;;;6.00;5.22;;;;;;;16.22;88.01;100789.20;1745290;81;21525;-86
2022/08/02 04:00:47;;;;;;;6.50;5.45;;;;;;;16.22;88.01;100789.20;1770102;80;21275;-87
2022/08/02 04:03:15;;;;;;;6.65;5.50;;;;;;;16.24;88.66;100793.47;1770291;80;21097;-86
2022/08/02 04:05:42;;;;;;;6.15;5.50;;;;;;;16.24;88.66;100793.47;1772807;80;21157;-86
2022/08/02 04:08:09;;;;;;;7.80;5.08;;;;;;;16.25;88.29;100798.28;1787386;80;21047;-86
2022/08/02 04:13:28;;;;;;;7.05;5.42;;;;;;;16.24;88.47;100801.88;1787618;80;21491;-83
2022/08/02 04:16:00;;;;;;;6.45;5.40;;;;;;;16.27;88.79;100810.48;1773163;79;21155;-81
2022/08/02 04:18:31;;;;;;;7.83;5.03;;;;;;;16.31;88.89;100809.84;1762217;80;21031;-79
2022/08/02 04:21:01;;;;;;;5.87;4.92;;;;;;;16.34;88.79;100818.09;1752898;81;21375;-81
2022/08/02 04:23:30;;;;;;;6.42;5.72;;;;;;;16.34;88.89;100814.12;1771107;80;21299;-80
2022/08/02 04:25:59;;;;;;;6.08;4.92;;;;;;;16.39;89.02;100817.38;1754493;80;21011;-80
2022/08/02 04:28:27;;;;;;;7.03;4.70;;;;;;;16.42;89.08;100826.46;1770284;80;22193;-79
2022/08/02 04:30:55;;;;;;;5.87;5.12;;;;;;;16.45;89.08;100823.64;1753990;81;21024;-79
2022/08/02 04:33:23;;;;;;;5.65;4.72;;;;;;;16.46;89.00;100830.19;1765773;80;21023;-79
2022/08/02 04:35:50;;;;;;;6.85;5.70;;;;;;;16.49;89.22;100835.78;1754904;81;21071;-79
2022/08/02 04:38:17;;;;;;;7.72;5.78;;;;;;;16.54;89.26;100835.03;1753751;80;21070;-80
2022/08/02 04:40:54;;;;;;;5.65;4.53;;;;;;;16.58;89.27;100839.23;1770568;80;21138;-80
2022/08/02 04:43:22;;;;;;;5.60;4.87;;;;;;;16.61;89.30;100840.39;1752382;81;21391;-80
2022/08/02 04:45:52;;;;;;;6.33;4.83;;;;;;;16.65;89.32;100836.62;1754114;81;21172;-79
2022/08/02 04:48:21;;;;;;;6.50;5.05;;;;;;;16.71;89.37;100836.30;1765195;80;21090;-79
2022/08/02 04:50:48;;;;;;;5.00;4.50;;;;;;;16.77;89.37;100841.76;1743226;80;21903;-80
2022/08/02 04:53:15;;;;;;;5.53;4.35;;;;;;;16.80;89.33;100848.67;1767933;80;21941;-80
2022/08/02 04:55:42;;;;;;;5.58;4.33;;;;;;;16.85;89.30;100846.59;1766290;80;21047;-79
2022/08/02 04:58:09;;;;;;;6.25;4.97;;;;;;;16.89;89.21;100847.67;1754590;81;21063;-80
2022/08/02 05:00:36;;;;;;;5.55;4.42;;;;;;;16.92;89.19;100845.33;1752712;81;21051;-80
2022/08/02 05:03:03;;;;;;;7.35;4.20;;;;;;;16.97;89.23;100845.08;1755118;81;21293;-81
2022/08/02 05:05:30;;;;;;;5.45;4.20;;;;;;;17.02;89.03;100850.50;1759638;81;21459;-79
2022/08/02 05:07:58;;;;;;;4.90;4.25;;;;;;;17.06;89.08;100852.48;1765301;80;20937;-79
2022/08/02 05:10:25;;;;;;;5.03;3.70;;;;;;;17.10;89.10;100854.04;1764028;79;21027;-79
2022/08/02 05:12:52;;;;;;;5.70;4.28;;;;;;;17.15;89.12;100854.61;1763812;80;21114;-79
2022/08/02 05:15:19;;;;;;;5.03;3.85;;;;;;;17.19;89.05;100851.33;1764915;80;21031;-80
2022/08/02 05:17:47;;;;;;;5.65;4.53;;;;;;;17.23;89.02;100852.84;1764098;80;21056;-80
2022/08/02 05:20:17;;;;;;;6.45;4.58;;;;;;;17.28;89.04;100852.11;1762356;80;21098;-80
2022/08/02 05:22:44;;;;;;;7.50;4.17;;;;;;;17.32;89.10;100861.13;1764935;80;21855;-80
2022/08/02 05:25:12;;;;;;;5.08;4.45;;;;;;;17.38;89.05;100860.77;1763636;79;21043;-79
2022/08/02 05:27:39;;;;;;;9.08;4.35;;;;;;;17.41;88.90;100857.56;1765046;80;21043;-81
2022/08/02 05:30:08;;;;;;;6.47;4.60;;;;;;;17.46;88.75;100866.08;1763451;80;21208;-79
2022/08/02 05:32:45;;;;;;;6.40;3.75;;;;;;;17.48;88.72;100869.02;1765839;80;21051;-81
2022/08/02 05:35:12;;;;;;;4.85;4.00;;;;;;;17.53;88.71;100872.73;1763335;80;21565;-82
2022/08/02 05:37:39;;;;;;;6.00;4.03;;;;;;;17.58;88.72;100867.55;1765087;78;21836;-84
2022/08/02 05:40:07;;;;;;;4.92;3.77;;;;;;;17.64;88.74;100870.79;1765000;78;21044;-84
2022/08/02 05:42:34;;;;;;;5.00;3.72;;;;;;;17.69;88.73;100870.89;1762970;81;21132;-81
2022/08/02 05:45:01;;;;;;;4.55;4.00;;;;;;;17.75;88.65;100871.85;1764922;78;20984;-81
2022/08/02 05:47:28;;;;;;;7.17;3.60;;;;;;;17.81;88.65;100878.14;1769961;80;21019;-84
2022/08/02 05:49:55;;;;;;;6.22;3.77;;;;;;;17.86;88.39;100871.73;1769981;78;21051;-84
2022/08/02 05:52:27;;;;;;;5.33;3.70;;;;;;;17.89;88.28;100870.21;1762217;81;21531;-82
2022/08/02 05:55:06;;;;;;;4.50;3.72;;;;;;;17.94;88.21;100866.81;1741438;80;21112;-83
2022/08/02 05:57:53;;;;;;;4.47;3.60;;;;;;;17.99;88.09;100870.05;1739561;81;21012;-80
2022/08/02 06:00:21;;;;;;;5.03;3.67;;;;;;;18.03;87.92;100870.23;1777840;80;21044;-81
2022/08/02 06:03:22;;;;;;;5.00;3.60;;;;;;;18.09;87.84;100871.17;1739706;81;21074;-80
2022/08/02 06:05:57;;;;;;;6.67;3.33;;;;;;;18.14;87.82;100874.88;1745188;80;21126;-80
2022/08/02 06:08:32;;;;;;;4.62;2.98;;;;;;;18.22;87.77;100876.59;1760979;81;21110;-81
2022/08/02 06:11:03;;;;;;;5.10;3.52;;;;;;;18.28;87.83;100879.71;1741904;81;20955;-82
2022/08/02 06:13:30;;;;;;;4.20;3.20;;;;;;;18.35;87.64;100875.38;1735019;81;21052;-82
2022/08/02 06:15:59;;;;;;;5.00;3.37;;;;;;;18.42;87.38;100872.22;1750327;81;21069;-90
2022/08/02 06:18:32;;;;;;;3.80;3.00;;;;;;;18.45;87.18;100869.85;1755867;80;21611;-90
2022/08/02 06:21:05;;;;;;;4.33;2.90;;;;;;;18.51;86.95;100873.45;1721852;80;20999;-81
2022/08/02 06:23:32;;;;;;;4.60;2.72;;;;;;;18.57;86.90;100881.05;1754231;81;21045;-84
2022/08/02 06:26:01;;;;;;;5.35;2.77;;;;;;;18.62;86.97;100879.41;1745467;82;21069;-82
2022/08/02 06:28:29;;;;;;;5.42;2.80;;;;;;;18.69;87.00;100884.25;1745464;82;21073;-84
2022/08/02 06:30:58;;;;;;;3.53;2.57;;;;;;;18.79;86.76;100883.23;1761108;81;20999;-85
2022/08/02 06:33:28;;;;;;;5.85;2.98;;;;;;;18.83;86.36;100886.05;1761407;80;21183;-85
2022/08/02 06:36:15;;;;;;;3.15;2.40;;;;;;;18.90;86.03;100887.38;1768478;80;21042;-83
2022/08/02 06:38:47;;;;;;;3.15;2.15;;;;;;;18.97;85.82;100886.50;1769378;80;21058;-83
2022/08/02 06:41:15;;;;;;;4.58;1.72;;;;;;;19.04;85.48;100883.84;1759431;81;20930;-83
2022/08/02 06:44:01;;;;;;;5.58;1.70;;;;;;;19.11;85.35;100877.64;1790040;80;21050;-87
2022/08/02 06:46:29;;;;;;;4.62;1.80;;;;;;;19.19;84.83;100881.98;1792178;80;21061;-82
2022/08/02 06:48:56;;;;;;;4.72;1.70;;;;;;;19.25;84.27;100883.38;1765105;81;21028;-80
2022/08/02 06:51:23;;;;;;;2.70;2.00;;;;;;;19.31;83.91;100886.95;1764939;80;21345;-83
2022/08/02 06:53:50;;;;;;;1.82;1.25;;;;;;;19.37;83.72;100886.09;1764990;81;21483;-84
2022/08/02 06:56:18;;;;;;;2.92;1.65;;;;;;;19.43;82.96;100891.48;1764922;81;21674;-81
2022/08/02 06:58:45;;;;;;;7.78;1.65;;;;;;;19.50;82.75;100891.42;1764825;81;21133;-86
2022/08/02 07:01:12;;;;;;;3.58;1.77;;;;;;;19.56;82.37;100888.35;1773600;80;20924;-84
2022/08/02 07:03:40;;;;;;;3.62;1.75;;;;;;;19.67;82.32;100889.48;1773916;79;21024;-84
2022/08/02 07:06:08;;;;;;;4.12;1.60;;;;;;;19.76;82.03;100890.18;1773612;80;22208;-81
2022/08/02 07:08:37;;;;;;;5.33;1.80;;;;;;;19.85;81.29;100891.39;1773569;79;21043;-83
2022/08/02 07:11:06;;;;;;;2.75;1.40;;;;;;;19.91;80.82;100890.48;1770430;79;21513;-83
2022/08/02 07:13:34;;;;;;;4.97;1.52;;;;;;;20.00;80.49;100890.33;1773879;79;21046;-82
2022/08/02 07:16:03;;;;;;;3.92;1.50;;;;;;;20.10;80.15;100881.25;1749729;81;21429;-83
2022/08/02 07:18:30;;;;;;;2.72;1.40;;;;;;;20.19;79.82;100881.92;1761597;80;26507;-84
2022/08/02 07:20:57;;;;;;;4.20;1.40;;;;;;;20.25;78.90;100878.83;1773590;79;21627;-84
2022/08/02 07:23:25;;;;;;;5.45;1.42;;;;;;;20.32;78.35;100872.13;1773860;80;21098;-84
2022/08/02 07:25:52;;;;;;;2.62;1.30;;;;;;;20.38;78.22;100866.85;1767789;80;20962;-85
2022/08/02 07:28:19;;;;;;;49.23;6.42;;;;;;;20.47;77.93;100867.03;1770528;80;21502;-86
2022/08/02 07:30:46;;;;;;;20.72;3.60;;;;;;;20.56;77.54;100868.22;1754561;80;21043;-85
2022/08/02 07:33:13;;;;;;;3.10;1.45;;;;;;;20.67;77.68;100872.33;1748355;80;20980;-84
2022/08/02 07:35:41;;;;;;;4.37;1.70;;;;;;;20.72;77.00;100875.48;1769310;80;21210;-86
2022/08/02 07:38:09;;;;;;;2.80;1.30;;;;;;;20.76;76.52;100872.59;1773361;80;37383;-85
2022/08/02 07:40:36;;;;;;;2.15;1.20;;;;;;;20.81;75.90;100871.78;1757424;80;21066;-85
2022/08/02 07:43:03;;;;;;;4.53;1.20;;;;;;;20.87;75.17;100872.70;1751327;80;21484;-85
2022/08/02 07:45:32;;;;;;;4.15;1.47;;;;;;;20.93;74.79;100871.75;1764849;80;21008;-85
2022/08/02 07:47:59;;;;;;;3.77;1.40;;;;;;;21.01;74.54;100861.03;1769964;80;21124;-86
2022/08/02 07:50:27;;;;;;;2.75;1.30;;;;;;;21.09;74.51;100868.83;1762727;80;21152;-85
2022/08/02 07:52:54;;;;;;;3.37;1.10;;;;;;;21.16;73.95;100867.39;1772190;80;20947;-85
2022/08/02 07:55:21;;;;;;;3.95;1.27;;;;;;;21.24;73.43;100867.31;1747776;80;21011;-85
2022/08/02 07:57:48;;;;;;;3.50;1.50;;;;;;;21.34;73.20;100871.00;1753661;80;21035;-84
2022/08/02 08:00:16;;;;;;;3.60;1.30;;;;;;;21.42;72.91;100865.95;1747012;80;21482;-85
2022/08/02 08:02:44;;;;;;;3.58;1.45;;;;;;;21.49;72.51;100876.53;1750956;80;21486;-85
2022/08/02 08:05:12;;;;;;;8.20;1.75;;;;;;;21.56;71.92;100869.79;1773404;80;21086;-85
2022/08/02 08:07:39;;;;;;;3.15;1.70;;;;;;;21.63;71.48;100878.66;1782694;79;21706;-86
2022/08/02 08:10:07;;;;;;;3.65;1.32;;;;;;;21.66;71.03;100877.92;1772387;79;21047;-85
2022/08/02 08:12:34;;;;;;;8.00;2.30;;;;;;;21.73;70.32;100877.00;1769496;79;21937;-85
2022/08/02 08:15:02;;;;;;;3.55;1.20;;;;;;;21.73;69.93;100883.17;1777489;78;21051;-85
2022/08/02 08:17:30;;;;;;;3.70;1.10;;;;;;;21.79;69.78;100878.70;1795697;79;21078;-86
2022/08/02 08:19:57;;;;;;;4.03;1.47;;;;;;;21.86;69.50;100873.73;1795420;79;21000;-85
2022/08/02 08:22:24;;;;;;;4.15;1.50;;;;;;;21.95;69.14;100881.05;1795873;79;21548;-85
2022/08/02 08:24:51;;;;;;;2.70;1.10;;;;;;;22.05;68.97;100879.34;1795405;79;21083;-86
2022/08/02 08:27:18;;;;;;;5.72;1.40;;;;;;;22.16;68.46;100891.02;1795748;79;21059;-86
2022/08/02 08:29:45;;;;;;;4.08;1.37;;;;;;;22.20;67.69;100886.70;1765658;78;22171;-85
2022/08/02 08:32:13;;;;;;;8.38;1.70;;;;;;;22.22;67.46;100897.23;1739541;80;21049;-85
2022/08/02 08:34:41;;;;;;;5.30;1.42;;;;;;;22.29;67.18;100892.29;1787793;78;21492;-85
2022/08/02 08:37:08;;;;;;;6.20;1.60;;;;;;;22.34;66.69;100892.78;1779481;79;21093;-86
2022/08/02 08:39:36;;;;;;;6.08;1.60;;;;;;;22.38;66.49;100897.73;1795520;78;20991;-86
2022/08/02 08:42:07;;;;;;;2.80;1.32;;;;;;;22.50;66.72;100893.23;1782975;78;21013;-85
2022/08/02 08:44:35;;;;;;;7.40;1.55;;;;;;;22.60;66.46;100901.39;1732002;80;21068;-86
2022/08/02 08:47:04;;;;;;;4.87;1.42;;;;;;;22.69;66.13;100898.81;1775929;79;21003;-85
2022/08/02 08:49:42;;;;;;;4.57;1.20;;;;;;;22.74;65.37;100897.13;1795754;78;21185;-85
2022/08/02 08:52:13;;;;;;;2.52;1.45;;;;;;;22.87;65.43;100891.65;1764357;79;21755;-85
2022/08/02 08:54:43;;;;;;;2.67;1.30;;;;;;;23.04;65.16;100892.98;1764008;78;21045;-86
2022/08/02 08:57:11;;;;;;;3.33;1.10;;;;;;;23.18;65.26;100900.72;1795426;79;21019;-85
2022/08/02 08:59:38;;;;;;;3.65;1.32;;;;;;;23.33;64.64;100892.77;1795608;78;21508;-85
2022/08/02 09:02:06;;;;;;;2.42;1.10;;;;;;;23.43;64.47;100901.36;1773164;78;21234;-86
2022/08/02 09:04:34;;;;;;;2.02;1.00;;;;;;;23.52;63.68;100897.91;1795365;79;21019;-86
2022/08/02 09:07:01;;;;;;;5.53;1.22;;;;;;;23.62;63.20;100894.83;1795106;79;20977;-86
2022/08/02 09:09:28;;;;;;;4.62;1.42;;;;;;;23.77;63.23;100894.89;1770049;81;21043;-86
2022/08/02 09:12:14;;;;;;;2.85;1.20;;;;;;;23.99;63.45;100895.25;1769268;78;21035;-86
2022/08/02 09:14:42;;;;;;;2.47;0.90;;;;;;;24.25;63.40;100891.68;1750414;78;21127;-86
2022/08/02 09:17:11;;;;;;;1.45;0.90;;;;;;;24.51;62.28;100897.11;1769972;78;21720;-86
2022/08/02 09:19:40;;;;;;;3.50;1.00;;;;;;;24.64;61.58;100893.21;1768191;78;21010;-86
2022/08/02 09:22:10;;;;;;;3.17;1.02;;;;;;;24.75;60.96;100890.92;1767575;78;20916;-86
2022/08/02 09:24:50;;;;;;;3.37;1.10;;;;;;;24.84;60.31;100894.61;1763661;78;21551;-86
2022/08/02 09:27:21;;;;;;;1.57;0.98;;;;;;;24.91;60.16;100898.42;1767787;81;21168;-86
2022/08/02 09:29:52;;;;;;;1.75;0.93;;;;;;;25.00;59.75;100897.61;1769961;78;21039;-86
2022/08/02 09:32:20;;;;;;;4.15;0.90;;;;;;;25.10;59.47;100904.32;1770292;78;21604;-86
2022/08/02 09:34:50;;;;;;;2.25;1.00;;;;;;;25.14;59.07;100899.92;1748493;78;21610;-86
2022/08/02 09:37:26;;;;;;;1.75;0.93;;;;;;;25.15;58.58;100900.77;1766460;78;21023;-86
2022/08/02 09:39:59;;;;;;;3.17;1.10;;;;;;;25.09;58.20;100901.30;1758136;78;21102;-86
2022/08/02 09:42:26;;;;;;;3.55;1.10;;;;;;;25.01;57.78;100900.64;1756497;78;21096;-85
2022/08/02 09:44:57;;;;;;;7.45;1.40;;;;;;;24.91;57.52;100899.76;1769995;78;21020;-85
2022/08/02 09:47:26;;;;;;;6.58;1.10;;;;;;;24.82;57.30;100892.55;1770016;80;21033;-87
2022/08/02 09:49:55;;;;;;;2.58;1.10;;;;;;;24.77;57.23;100899.66;1747714;78;21646;-84
2022/08/02 09:52:28;;;;;;;1.98;1.12;;;;;;;24.76;56.93;100894.45;1760690;78;27182;-86
2022/08/02 09:54:57;;;;;;;4.17;1.17;;;;;;;24.75;56.99;100896.75;1752791;79;21027;-85
2022/08/02 09:57:29;;;;;;;1.87;1.17;;;;;;;24.77;56.89;100889.42;1758095;78;21583;-86
2022/08/02 09:59:57;;;;;;;5.83;1.30;;;;;;;24.77;56.67;100892.95;1751992;81;21042;-87
2022/08/02 10:02:25;;;;;;;4.45;1.50;;;;;;;24.79;56.43;100889.65;1744792;81;21031;-86
2022/08/02 10:04:53;;;;;;;2.72;1.75;;;;;;;24.82;56.28;100888.53;1744258;81;21118;-83
2022/08/02 10:07:22;;;;;;;3.83;1.82;;;;;;;24.91;56.33;100886.35;1749084;78;20999;-83
2022/08/02 10:09:51;;;;;;;2.72;2.00;;;;;;;25.01;55.53;100889.91;1769212;81;21600;-85
2022/08/02 10:12:21;;;;;;;3.00;1.62;;;;;;;25.01;55.23;100887.73;1761624;78;21040;-87
2022/08/02 10:14:51;;;;;;;3.42;1.40;;;;;;;24.99;55.28;100883.83;1761710;78;20991;-89
2022/08/02 10:17:20;;;;;;;2.22;1.20;;;;;;;25.05;55.37;100883.77;1769920;78;21129;-85
2022/08/02 10:19:47;;;;;;;3.12;1.62;;;;;;;25.16;55.43;100878.30;1770313;80;20999;-88
2022/08/02 10:22:16;;;;;;;2.60;1.70;;;;;;;25.18;55.23;100876.34;1770127;78;21663;-89
2022/08/02 10:24:45;;;;;;;3.55;1.32;;;;;;;25.30;55.06;100877.92;1757059;78;21038;-89
2022/08/02 10:27:20;;;;;;;3.90;1.80;;;;;;;25.58;54.75;100877.55;1758037;78;21055;-89
2022/08/02 10:29:50;;;;;;;2.40;1.40;;;;;;;25.92;54.57;100881.64;1748634;80;21203;-89
2022/08/02 10:32:28;;;;;;;1.80;1.10;;;;;;;26.29;54.54;100868.72;1766243;78;20982;-89
2022/08/02 10:35:03;;;;;;;3.25;1.30;;;;;;;26.67;54.14;100871.77;1769764;78;20989;-89
2022/08/02 10:37:35;;;;;;;3.55;1.50;;;;;;;27.01;53.07;100867.94;1766114;78;21502;-89
2022/08/02 10:40:03;;;;;;;4.72;1.75;;;;;;;27.28;52.84;100854.11;1770005;78;21519;-89
2022/08/02 10:42:53;;;;;;;5.87;1.55;;;;;;;27.68;53.11;100861.66;1766222;78;21123;-90
2022/08/02 10:45:22;;;;;;;4.17;1.40;;;;;;;27.72;52.19;100856.83;1719154;80;21077;-89
2022/08/02 10:48:10;;;;;;;3.33;1.32;;;;;;;27.86;51.57;100856.79;1765951;80;21035;-88
2022/08/02 10:50:52;;;;;;;5.73;1.60;;;;;;;27.73;51.19;100853.13;1748865;80;21022;-89
2022/08/02 10:53:30;;;;;;;2.62;1.55;;;;;;;27.46;50.60;100858.96;1792489;80;21557;-89
2022/08/02 10:56:01;;;;;;;3.98;1.85;;;;;;;27.21;50.31;100857.90;1792873;80;21138;-89
2022/08/02 10:58:31;;;;;;;2.60;1.30;;;;;;;26.89;50.00;100856.55;1792502;80;21060;-90
2022/08/02 11:01:06;;;;;;;5.70;1.70;;;;;;;26.92;50.52;100857.59;1792547;80;21044;-90
2022/08/02 11:03:38;;;;;;;2.58;1.85;;;;;;;27.03;49.99;100849.80;1759794;78;21019;-89
2022/08/02 11:06:11;;;;;;;6.05;1.87;;;;;;;27.11;50.17;100840.97;1760588;81;20996;-89
2022/08/02 11:08:39;;;;;;;2.67;2.08;;;;;;;27.39;50.03;100840.41;1756291;80;21117;-89
2022/08/02 11:11:14;;;;;;;2.75;2.05;;;;;;;27.54;49.64;100838.84;1789862;78;21097;-89
2022/08/02 11:14:08;;;;;;;3.05;2.08;;;;;;;27.41;49.34;100839.77;1768001;78;21055;-90
2022/08/02 11:17:02;;;;;;;4.17;2.08;;;;;;;27.42;49.32;100836.06;1778900;80;20978;-89
2022/08/02 11:19:29;;;;;;;8.30;2.42;;;;;;;27.76;49.14;100833.44;1790271;79;21036;-89
2022/08/02 11:22:09;;;;;;;3.65;1.85;;;;;;;28.11;48.52;100836.23;1789841;80;21133;-89
2022/08/02 11:24:38;;;;;;;2.33;1.98;;;;;;;28.28;48.61;100837.98;1783167;78;21018;-90
2022/08/02 11:27:10;;;;;;;5.08;1.95;;;;;;;28.57;48.30;100832.25;1758916;81;21632;-89
2022/08/02 11:29:43;;;;;;;2.75;2.10;;;;;;;28.76;47.86;100833.80;1762214;78;21005;-90
2022/08/02 11:32:22;;;;;;;6.85;2.80;;;;;;;29.07;47.83;100842.17;1766129;80;21068;-89
2022/08/02 11:34:53;;;;;;;2.85;1.87;;;;;;;29.38;47.14;100846.92;1766728;78;21118;-89
2022/08/02 11:37:39;;;;;;;2.20;1.90;;;;;;;29.47;46.24;100847.25;1772509;78;21091;-89
2022/08/02 11:40:14;;;;;;;4.17;1.70;;;;;;;29.42;45.73;100834.75;1713667;81;21117;-90
2022/08/02 11:42:49;;;;;;;2.22;1.70;;;;;;;29.52;45.49;100831.38;1790265;80;21007;-89
2022/08/02 11:45:19;;;;;;;3.40;1.90;;;;;;;29.66;45.09;100829.05;1751273;81;21496;-86